St Pierre — FIDX — position and weather

sailwx.info

Track history (hours):
 
Tides and Currents Weather Stations Pressure Air Temp Water Temp Dewpoint Dewpoint Depression Visibility Wind Speed Wind Dir Waves Ship Positions

St Pierre

Last reported at 2016-Jul-24 04:33 UTC. Time now 2016-Jul-24 04:53 UTC.
Position N 47°12' W 001°37'.

Length 84 m; draft 5.8 m.

Type: Cargo ship. MMSI: 228024800.

Date/timePositionNaut miles runAvg speedWind from/ knotsBaromVisibWave heightAir tempDewpointWater temp
2016-Jul-24 04:33N 47°12' W 001°37'0 0.0
2016-Jul-24 03:33N 47°12' W 001°37'0 0.0
2016-Jul-24 02:33N 47°12' W 001°37'0 0.0
2016-Jul-24 01:33N 47°12' W 001°37'0 0.0
2016-Jul-24 00:34N 47°12' W 001°37'0 0.0
2016-Jul-23 23:33N 47°12' W 001°37'0 0.0
2016-Jul-23 22:33N 47°12' W 001°37'0 0.0
2016-Jul-23 21:33N 47°12' W 001°37'0 0.0
2016-Jul-23 20:34N 47°12' W 001°37'0 0.0
2016-Jul-23 19:33N 47°12' W 001°37'0 0.0
2016-Jul-23 18:34N 47°12' W 001°37'0 0.0
2016-Jul-23 17:33N 47°12' W 001°37'0 0.0
2016-Jul-23 16:33N 47°12' W 001°37'0 0.0
2016-Jul-23 15:33N 47°12' W 001°37'0 0.0
2016-Jul-23 14:33N 47°12' W 001°37'0 0.0
2016-Jul-23 13:33N 47°12' W 001°37'0 0.0
2016-Jul-23 12:33N 47°12' W 001°37'0 0.0
2016-Jul-23 11:33N 47°12' W 001°37'0 0.0
2016-Jul-23 10:33N 47°12' W 001°37'0 0.0
2016-Jul-23 09:33N 47°12' W 001°37'0 0.0
2016-Jul-23 08:33N 47°12' W 001°37'1 0.8
2016-Jul-23 07:33N 47°12' W 001°38'0 0.0
2016-Jul-23 06:33N 47°12' W 001°38'13 6.5
2016-Jul-23 04:34N 47°17' W 001°55'1212.0
2016-Jul-23 03:34N 47°15' W 002°13'1010.1
2016-Jul-23 02:33N 47°06' W 002°20'0 0.0
2016-Jul-23 01:33N 47°06' W 002°20'0 0.0
2016-Jul-23 00:33N 47°06' W 002°20'0 0.1
2016-Jul-22 23:33N 47°06' W 002°20'2 1.6
2016-Jul-22 22:34N 47°05' W 002°21'0 0.2
2016-Jul-22 21:33N 47°05' W 002°21'0 0.1
2016-Jul-22 20:33N 47°05' W 002°21'0 0.1
2016-Jul-22 19:33N 47°05' W 002°21'7 7.5
2016-Jul-22 18:34N 47°12' W 002°17'9 9.4
2016-Jul-22 17:33N 47°18' W 002°07'0 0.0
2016-Jul-22 16:33N 47°18' W 002°07'0 0.0
2016-Jul-22 15:33N 47°18' W 002°07'10 9.8
2016-Jul-22 14:33N 47°12' W 002°17'7 6.9
2016-Jul-22 13:33N 47°05' W 002°20'0 0.0
2016-Jul-22 12:33N 47°05' W 002°20'0 0.1
2016-Jul-22 11:33N 47°05' W 002°21'0 0.0
2016-Jul-22 10:33N 47°05' W 002°21'1 0.6
2016-Jul-22 09:33N 47°06' W 002°21'1312.7
2016-Jul-22 08:33N 47°16' W 002°11'1212.2
2016-Jul-22 07:34N 47°16' W 001°53'11 5.7
2016-Jul-22 05:34N 47°12' W 001°38'3 3.3
2016-Jul-22 04:34N 47°12' W 001°43'1111.5
2016-Jul-22 03:33N 47°17' W 001°58'1212.3
2016-Jul-22 02:34N 47°14' W 002°16'10 9.6
2016-Jul-22 01:33N 47°05' W 002°21'0 0.0
2016-Jul-22 00:33N 47°05' W 002°21'0 0.1
2016-Jul-21 23:33N 47°05' W 002°21'0 0.1
2016-Jul-21 22:33N 47°05' W 002°21'0 0.1
2016-Jul-21 21:33N 47°05' W 002°21'8 8.0
2016-Jul-21 20:34N 47°13' W 002°17'1312.6
2016-Jul-21 19:33N 47°17' W 001°60'1211.8
2016-Jul-21 18:33N 47°12' W 001°44'4 4.0
2016-Jul-21 17:33N 47°12' W 001°38'0 0.0
2016-Jul-21 16:33N 47°12' W 001°38'1110.4
2016-Jul-21 15:33N 47°16' W 001°52'1312.7
2016-Jul-21 14:33N 47°17' W 002°10'1312.7
2016-Jul-21 13:33N 47°06' W 002°20'1 1.2
2016-Jul-21 12:33N 47°05' W 002°21'0 0.2
2016-Jul-21 11:34N 47°05' W 002°20'0 0.2
2016-Jul-21 10:34N 47°05' W 002°20'0 0.1
2016-Jul-21 09:32N 47°05' W 002°20'5 5.3
2016-Jul-21 08:33N 47°10' W 002°19'1111.4
2016-Jul-21 07:34N 47°18' W 002°07'0 0.0
2016-Jul-21 06:33N 47°18' W 002°07'0 0.0
2016-Jul-21 05:33N 47°18' W 002°07'6 5.9
2016-Jul-21 04:33N 47°15' W 002°14'10 9.5
2016-Jul-21 03:33N 47°06' W 002°21'2 1.5
2016-Jul-21 02:33N 47°05' W 002°21'0 0.1
2016-Jul-21 01:33N 47°05' W 002°21'0 0.2
2016-Jul-21 00:33N 47°05' W 002°20'0 0.0
2016-Jul-20 23:33N 47°05' W 002°20'1 1.2
2016-Jul-20 22:33N 47°06' W 002°21'1111.4
2016-Jul-20 21:33N 47°16' W 002°12'1312.7
2016-Jul-20 20:33N 47°16' W 001°53'1110.8
2016-Jul-20 19:30N 47°12' W 001°38'0 0.0
2016-Jul-20 18:33N 47°12' W 001°38'0 0.0
2016-Jul-20 17:33N 47°12' W 001°38'8 8.5
2016-Jul-20 16:33N 47°14' W 001°50'1110.6
2016-Jul-20 15:33N 47°18' W 002°04'1212.3
2016-Jul-20 14:33N 47°10' W 002°18'6 5.6
2016-Jul-20 13:34N 47°05' W 002°21'0 0.1
2016-Jul-20 12:34N 47°05' W 002°21'0 0.1
2016-Jul-20 11:33N 47°05' W 002°21'0 0.3
2016-Jul-20 10:32N 47°05' W 002°21'1211.9
2016-Jul-20 09:34N 47°11' W 002°36'1312.8
2016-Jul-20 08:34N 47°17' W 002°52'1312.9
2016-Jul-20 07:34N 47°24' W 003°09'1313.3
2016-Jul-20 06:34N 47°35' W 003°18'9 9.0
2016-Jul-20 05:33N 47°44' W 003°20'1 0.7
2016-Jul-20 04:23N 47°45' W 003°19'0 0.0
2016-Jul-20 03:29N 47°45' W 003°19'6 6.2
2016-Jul-20 02:33N 47°41' W 003°25'1 0.9
2016-Jul-20 01:31N 47°40' W 003°25'0 0.0
2016-Jul-20 00:31N 47°40' W 003°25'0 0.0
2016-Jul-19 23:33N 47°40' W 003°25'0 0.1
2016-Jul-19 22:33N 47°40' W 003°25'5 5.1
2016-Jul-19 21:33N 47°37' W 003°19'1111.0
2016-Jul-19 20:33N 47°27' W 003°11'1111.3
2016-Jul-19 19:33N 47°20' W 002°59'1110.7
2016-Jul-19 18:33N 47°14' W 002°45'1110.6
2016-Jul-19 17:33N 47°09' W 002°32'8 8.2
2016-Jul-19 16:33N 47°05' W 002°21'0 0.3
2016-Jul-19 15:34N 47°05' W 002°21'0 0.2
2016-Jul-19 14:34N 47°05' W 002°21'0 0.2
2016-Jul-19 13:34N 47°05' W 002°21'1110.5
2016-Jul-19 12:34N 47°15' W 002°14'9 8.8
2016-Jul-19 11:33N 47°18' W 002°02'1010.4
2016-Jul-19 10:33N 47°13' W 001°49'8 8.2
2016-Jul-19 09:33N 47°12' W 001°37'0 0.0
2016-Jul-19 08:33N 47°12' W 001°37'0 0.0
2016-Jul-19 07:33N 47°12' W 001°37'0 0.0
2016-Jul-19 04:33N 47°12' W 001°37'0 0.0
2016-Jul-19 03:33N 47°12' W 001°37'0 0.0
2016-Jul-19 02:34N 47°12' W 001°37'0 0.0
2016-Jul-19 01:33N 47°12' W 001°37'0 0.0
2016-Jul-19 00:34N 47°12' W 001°37'0 0.0
2016-Jul-18 23:33N 47°12' W 001°37'0 0.0
2016-Jul-18 22:33N 47°12' W 001°37'0 0.0
2016-Jul-18 21:33N 47°12' W 001°37'0 0.0
2016-Jul-18 20:33N 47°12' W 001°37'0 0.0
2016-Jul-18 19:33N 47°12' W 001°37'0 0.0
2016-Jul-18 18:33N 47°12' W 001°37'0 0.0
2016-Jul-18 17:33N 47°12' W 001°37'0 0.0
2016-Jul-18 16:33N 47°12' W 001°37'0 0.0
2016-Jul-18 15:33N 47°12' W 001°37'0 0.0
2016-Jul-18 14:33N 47°12' W 001°37'0 0.0
2016-Jul-18 13:33N 47°12' W 001°37'0 0.0
2016-Jul-18 12:33N 47°12' W 001°37'0 0.0
2016-Jul-18 11:33N 47°12' W 001°37'0 0.0
2016-Jul-18 10:33N 47°12' W 001°37'0 0.0
2016-Jul-18 09:33N 47°12' W 001°37'0 0.0
2016-Jul-18 08:33N 47°12' W 001°37'0 0.0
2016-Jul-18 07:33N 47°12' W 001°37'0 0.0
2016-Jul-18 06:33N 47°12' W 001°37'0 0.0
2016-Jul-18 05:33N 47°12' W 001°37'0 0.0
2016-Jul-18 04:33N 47°12' W 001°37'0 0.0
2016-Jul-18 03:33N 47°12' W 001°37'0 0.0
2016-Jul-18 02:33N 47°12' W 001°37'0 0.0
2016-Jul-18 01:33N 47°12' W 001°37'0 0.0
2016-Jul-18 00:33N 47°12' W 001°37'0 0.0
2016-Jul-17 23:33N 47°12' W 001°37'0 0.0
2016-Jul-17 22:33N 47°12' W 001°37'0 0.0
2016-Jul-17 21:33N 47°12' W 001°37'0 0.0
2016-Jul-17 20:33N 47°12' W 001°37'0 0.0
2016-Jul-17 19:33N 47°12' W 001°37'0 0.0
2016-Jul-17 18:33N 47°12' W 001°37'0 0.0
2016-Jul-17 17:33N 47°12' W 001°37'0 0.0
2016-Jul-17 16:33N 47°12' W 001°37'0 0.0
2016-Jul-17 15:33N 47°12' W 001°37'0 0.0
2016-Jul-17 14:33N 47°12' W 001°37'0 0.0
2016-Jul-17 13:33N 47°12' W 001°37'0 0.0
2016-Jul-17 12:33N 47°12' W 001°37'0 0.0
2016-Jul-17 11:33N 47°12' W 001°37'0 0.0
2016-Jul-17 10:33N 47°12' W 001°37'0 0.0
2016-Jul-17 09:33N 47°12' W 001°37'0 0.0
2016-Jul-17 08:33N 47°12' W 001°37'0 0.0
2016-Jul-17 07:33N 47°12' W 001°37'0 0.0
2016-Jul-17 06:33N 47°12' W 001°37'0 0.0
2016-Jul-17 04:33N 47°12' W 001°37'0 0.0
2016-Jul-17 03:33N 47°12' W 001°37'0 0.0
2016-Jul-17 02:33N 47°12' W 001°37'0 0.0
2016-Jul-17 01:33N 47°12' W 001°37'0 0.0
2016-Jul-17 00:33N 47°12' W 001°37'0 0.0
2016-Jul-16 23:33N 47°12' W 001°37'0 0.0
2016-Jul-16 22:33N 47°12' W 001°37'0 0.0
2016-Jul-16 21:33N 47°12' W 001°37'0 0.0
2016-Jul-16 20:33N 47°12' W 001°37'18 2.0
2016-Jul-16 11:24N 47°18' W 002°02'1011.4
2016-Jul-16 10:32N 47°14' W 002°16'9 8.8
2016-Jul-16 09:32N 47°06' W 002°20'1 0.9
2016-Jul-16 08:33N 47°05' W 002°21'0 0.1
2016-Jul-16 07:33N 47°05' W 002°21'0 0.1
2016-Jul-16 06:34N 47°05' W 002°21'19 9.4
2016-Jul-16 04:33N 47°17' W 002°00'1211.5
2016-Jul-16 03:33N 47°12' W 001°45'5 5.1
2016-Jul-16 02:33N 47°12' W 001°38'0 0.0
2016-Jul-16 01:34N 47°12' W 001°38'1 1.4
2016-Jul-16 00:34N 47°12' W 001°40'9 9.1
2016-Jul-15 23:34N 47°16' W 001°52'1110.5
2016-Jul-15 22:34N 47°18' W 002°07'1110.5
2016-Jul-15 21:33N 47°11' W 002°18'5 5.3
2016-Jul-15 20:34N 47°06' W 002°21'1 0.8
2016-Jul-15 19:32N 47°05' W 002°21'0 0.1
2016-Jul-15 18:33N 47°05' W 002°21'0 0.1
2016-Jul-15 17:32N 47°05' W 002°21'0 0.1
2016-Jul-15 16:32N 47°05' W 002°21'7 0.6
2016-Jul-15 05:33N 47°11' W 002°18'1010.1
2016-Jul-15 04:33N 47°18' W 002°07'0 0.0
2016-Jul-15 03:33N 47°18' W 002°07'0 0.0
2016-Jul-15 02:33N 47°18' W 002°07'0 0.0
2016-Jul-15 01:33N 47°18' W 002°07'0 0.0
2016-Jul-15 00:18N 47°18' W 002°07'0 0.0
2016-Jul-14 23:30N 47°18' W 002°07'11 1.4
2016-Jul-14 15:34N 47°15' W 001°51'10 9.2
2016-Jul-14 14:31N 47°12' W 001°38'0 0.0
2016-Jul-14 13:31N 47°12' W 001°38'0 0.0
2016-Jul-14 12:33N 47°12' W 001°38'0 0.0
2016-Jul-14 11:33N 47°12' W 001°38'1 1.3
2016-Jul-14 10:33N 47°12' W 001°40'1010.1
2016-Jul-14 09:33N 47°16' W 001°53'1111.2
2016-Jul-14 08:33N 47°18' W 002°09'1110.9
2016-Jul-14 07:33N 47°09' W 002°19'4 4.3
2016-Jul-14 06:34N 47°05' W 002°21'0 0.1
2016-Jul-14 05:34N 47°05' W 002°21'0 0.1
2016-Jul-14 04:33N 47°05' W 002°21'  
Track history (hours):
 
Tides and Currents Weather Stations Pressure Air Temp Water Temp Dewpoint Dewpoint Depression Visibility Wind Speed Wind Dir Waves Ship Positions

St Pierre

Last reported at 2016-Jul-24 04:33 UTC. Time now 2016-Jul-24 04:53 UTC.
Position N 47°12' W 001°37'.

Length 84 m; draft 5.8 m.

Type: Cargo ship. MMSI: 228024800.

Date/timePositionNaut miles runAvg speedWind from/ knotsBaromVisibWave heightAir tempDewpointWater temp
2016-Jul-24 04:33N 47°12' W 001°37'0 0.0
2016-Jul-24 03:33N 47°12' W 001°37'0 0.0
2016-Jul-24 02:33N 47°12' W 001°37'0 0.0
2016-Jul-24 01:33N 47°12' W 001°37'0 0.0
2016-Jul-24 00:34N 47°12' W 001°37'0 0.0
2016-Jul-23 23:33N 47°12' W 001°37'0 0.0
2016-Jul-23 22:33N 47°12' W 001°37'0 0.0
2016-Jul-23 21:33N 47°12' W 001°37'0 0.0
2016-Jul-23 20:34N 47°12' W 001°37'0 0.0
2016-Jul-23 19:33N 47°12' W 001°37'0 0.0
2016-Jul-23 18:34N 47°12' W 001°37'0 0.0
2016-Jul-23 17:33N 47°12' W 001°37'0 0.0
2016-Jul-23 16:33N 47°12' W 001°37'0 0.0
2016-Jul-23 15:33N 47°12' W 001°37'0 0.0
2016-Jul-23 14:33N 47°12' W 001°37'0 0.0
2016-Jul-23 13:33N 47°12' W 001°37'0 0.0
2016-Jul-23 12:33N 47°12' W 001°37'0 0.0
2016-Jul-23 11:33N 47°12' W 001°37'0 0.0
2016-Jul-23 10:33N 47°12' W 001°37'0 0.0
2016-Jul-23 09:33N 47°12' W 001°37'0 0.0
2016-Jul-23 08:33N 47°12' W 001°37'1 0.8
2016-Jul-23 07:33N 47°12' W 001°38'0 0.0
2016-Jul-23 06:33N 47°12' W 001°38'13 6.5
2016-Jul-23 04:34N 47°17' W 001°55'1212.0
2016-Jul-23 03:34N 47°15' W 002°13'1010.1
2016-Jul-23 02:33N 47°06' W 002°20'0 0.0
2016-Jul-23 01:33N 47°06' W 002°20'0 0.0
2016-Jul-23 00:33N 47°06' W 002°20'0 0.1
2016-Jul-22 23:33N 47°06' W 002°20'2 1.6
2016-Jul-22 22:34N 47°05' W 002°21'0 0.2
2016-Jul-22 21:33N 47°05' W 002°21'0 0.1
2016-Jul-22 20:33N 47°05' W 002°21'0 0.1
2016-Jul-22 19:33N 47°05' W 002°21'7 7.5
2016-Jul-22 18:34N 47°12' W 002°17'9 9.4
2016-Jul-22 17:33N 47°18' W 002°07'0 0.0
2016-Jul-22 16:33N 47°18' W 002°07'0 0.0
2016-Jul-22 15:33N 47°18' W 002°07'10 9.8
2016-Jul-22 14:33N 47°12' W 002°17'7 6.9
2016-Jul-22 13:33N 47°05' W 002°20'0 0.0
2016-Jul-22 12:33N 47°05' W 002°20'0 0.1
2016-Jul-22 11:33N 47°05' W 002°21'0 0.0
2016-Jul-22 10:33N 47°05' W 002°21'1 0.6
2016-Jul-22 09:33N 47°06' W 002°21'1312.7
2016-Jul-22 08:33N 47°16' W 002°11'1212.2
2016-Jul-22 07:34N 47°16' W 001°53'11 5.7
2016-Jul-22 05:34N 47°12' W 001°38'3 3.3
2016-Jul-22 04:34N 47°12' W 001°43'1111.5
2016-Jul-22 03:33N 47°17' W 001°58'1212.3
2016-Jul-22 02:34N 47°14' W 002°16'10 9.6
2016-Jul-22 01:33N 47°05' W 002°21'0 0.0
2016-Jul-22 00:33N 47°05' W 002°21'0 0.1
2016-Jul-21 23:33N 47°05' W 002°21'0 0.1
2016-Jul-21 22:33N 47°05' W 002°21'0 0.1
2016-Jul-21 21:33N 47°05' W 002°21'8 8.0
2016-Jul-21 20:34N 47°13' W 002°17'1312.6
2016-Jul-21 19:33N 47°17' W 001°60'1211.8
2016-Jul-21 18:33N 47°12' W 001°44'4 4.0
2016-Jul-21 17:33N 47°12' W 001°38'0 0.0
2016-Jul-21 16:33N 47°12' W 001°38'1110.4
2016-Jul-21 15:33N 47°16' W 001°52'1312.7
2016-Jul-21 14:33N 47°17' W 002°10'1312.7
2016-Jul-21 13:33N 47°06' W 002°20'1 1.2
2016-Jul-21 12:33N 47°05' W 002°21'0 0.2
2016-Jul-21 11:34N 47°05' W 002°20'0 0.2
2016-Jul-21 10:34N 47°05' W 002°20'0 0.1
2016-Jul-21 09:32N 47°05' W 002°20'5 5.3
2016-Jul-21 08:33N 47°10' W 002°19'1111.4
2016-Jul-21 07:34N 47°18' W 002°07'0 0.0
2016-Jul-21 06:33N 47°18' W 002°07'0 0.0
2016-Jul-21 05:33N 47°18' W 002°07'6 5.9
2016-Jul-21 04:33N 47°15' W 002°14'10 9.5
2016-Jul-21 03:33N 47°06' W 002°21'2 1.5
2016-Jul-21 02:33N 47°05' W 002°21'0 0.1
2016-Jul-21 01:33N 47°05' W 002°21'0 0.2
2016-Jul-21 00:33N 47°05' W 002°20'0 0.0
2016-Jul-20 23:33N 47°05' W 002°20'1 1.2
2016-Jul-20 22:33N 47°06' W 002°21'1111.4
2016-Jul-20 21:33N 47°16' W 002°12'1312.7
2016-Jul-20 20:33N 47°16' W 001°53'1110.8
2016-Jul-20 19:30N 47°12' W 001°38'0 0.0
2016-Jul-20 18:33N 47°12' W 001°38'0 0.0
2016-Jul-20 17:33N 47°12' W 001°38'8 8.5
2016-Jul-20 16:33N 47°14' W 001°50'1110.6
2016-Jul-20 15:33N 47°18' W 002°04'1212.3
2016-Jul-20 14:33N 47°10' W 002°18'6 5.6
2016-Jul-20 13:34N 47°05' W 002°21'0 0.1
2016-Jul-20 12:34N 47°05' W 002°21'0 0.1
2016-Jul-20 11:33N 47°05' W 002°21'0 0.3
2016-Jul-20 10:32N 47°05' W 002°21'1211.9
2016-Jul-20 09:34N 47°11' W 002°36'1312.8
2016-Jul-20 08:34N 47°17' W 002°52'1312.9
2016-Jul-20 07:34N 47°24' W 003°09'1313.3
2016-Jul-20 06:34N 47°35' W 003°18'9 9.0
2016-Jul-20 05:33N 47°44' W 003°20'1 0.7
2016-Jul-20 04:23N 47°45' W 003°19'0 0.0
2016-Jul-20 03:29N 47°45' W 003°19'6 6.2
2016-Jul-20 02:33N 47°41' W 003°25'1 0.9
2016-Jul-20 01:31N 47°40' W 003°25'0 0.0
2016-Jul-20 00:31N 47°40' W 003°25'0 0.0
2016-Jul-19 23:33N 47°40' W 003°25'0 0.1
2016-Jul-19 22:33N 47°40' W 003°25'5 5.1
2016-Jul-19 21:33N 47°37' W 003°19'1111.0
2016-Jul-19 20:33N 47°27' W 003°11'1111.3
2016-Jul-19 19:33N 47°20' W 002°59'1110.7
2016-Jul-19 18:33N 47°14' W 002°45'1110.6
2016-Jul-19 17:33N 47°09' W 002°32'8 8.2
2016-Jul-19 16:33N 47°05' W 002°21'0 0.3
2016-Jul-19 15:34N 47°05' W 002°21'0 0.2
2016-Jul-19 14:34N 47°05' W 002°21'0 0.2
2016-Jul-19 13:34N 47°05' W 002°21'1110.5
2016-Jul-19 12:34N 47°15' W 002°14'9 8.8
2016-Jul-19 11:33N 47°18' W 002°02'1010.4
2016-Jul-19 10:33N 47°13' W 001°49'8 8.2
2016-Jul-19 09:33N 47°12' W 001°37'0 0.0
2016-Jul-19 08:33N 47°12' W 001°37'0 0.0
2016-Jul-19 07:33N 47°12' W 001°37'0 0.0
2016-Jul-19 04:33N 47°12' W 001°37'0 0.0
2016-Jul-19 03:33N 47°12' W 001°37'0 0.0
2016-Jul-19 02:34N 47°12' W 001°37'0 0.0
2016-Jul-19 01:33N 47°12' W 001°37'0 0.0
2016-Jul-19 00:34N 47°12' W 001°37'0 0.0
2016-Jul-18 23:33N 47°12' W 001°37'0 0.0
2016-Jul-18 22:33N 47°12' W 001°37'0 0.0
2016-Jul-18 21:33N 47°12' W 001°37'0 0.0
2016-Jul-18 20:33N 47°12' W 001°37'0 0.0
2016-Jul-18 19:33N 47°12' W 001°37'0 0.0
2016-Jul-18 18:33N 47°12' W 001°37'0 0.0
2016-Jul-18 17:33N 47°12' W 001°37'0 0.0
2016-Jul-18 16:33N 47°12' W 001°37'0 0.0
2016-Jul-18 15:33N 47°12' W 001°37'0 0.0
2016-Jul-18 14:33N 47°12' W 001°37'0 0.0
2016-Jul-18 13:33N 47°12' W 001°37'0 0.0
2016-Jul-18 12:33N 47°12' W 001°37'0 0.0
2016-Jul-18 11:33N 47°12' W 001°37'0 0.0
2016-Jul-18 10:33N 47°12' W 001°37'0 0.0
2016-Jul-18 09:33N 47°12' W 001°37'0 0.0
2016-Jul-18 08:33N 47°12' W 001°37'0 0.0
2016-Jul-18 07:33N 47°12' W 001°37'0 0.0
2016-Jul-18 06:33N 47°12' W 001°37'0 0.0
2016-Jul-18 05:33N 47°12' W 001°37'0 0.0
2016-Jul-18 04:33N 47°12' W 001°37'0 0.0
2016-Jul-18 03:33N 47°12' W 001°37'0 0.0
2016-Jul-18 02:33N 47°12' W 001°37'0 0.0
2016-Jul-18 01:33N 47°12' W 001°37'0 0.0
2016-Jul-18 00:33N 47°12' W 001°37'0 0.0
2016-Jul-17 23:33N 47°12' W 001°37'0 0.0
2016-Jul-17 22:33N 47°12' W 001°37'0 0.0
2016-Jul-17 21:33N 47°12' W 001°37'0 0.0
2016-Jul-17 20:33N 47°12' W 001°37'0 0.0
2016-Jul-17 19:33N 47°12' W 001°37'0 0.0
2016-Jul-17 18:33N 47°12' W 001°37'0 0.0
2016-Jul-17 17:33N 47°12' W 001°37'0 0.0
2016-Jul-17 16:33N 47°12' W 001°37'0 0.0
2016-Jul-17 15:33N 47°12' W 001°37'0 0.0
2016-Jul-17 14:33N 47°12' W 001°37'0 0.0
2016-Jul-17 13:33N 47°12' W 001°37'0 0.0
2016-Jul-17 12:33N 47°12' W 001°37'0 0.0
2016-Jul-17 11:33N 47°12' W 001°37'0 0.0
2016-Jul-17 10:33N 47°12' W 001°37'0 0.0
2016-Jul-17 09:33N 47°12' W 001°37'0 0.0
2016-Jul-17 08:33N 47°12' W 001°37'0 0.0
2016-Jul-17 07:33N 47°12' W 001°37'0 0.0
2016-Jul-17 06:33N 47°12' W 001°37'0 0.0
2016-Jul-17 04:33N 47°12' W 001°37'0 0.0
2016-Jul-17 03:33N 47°12' W 001°37'0 0.0
2016-Jul-17 02:33N 47°12' W 001°37'0 0.0
2016-Jul-17 01:33N 47°12' W 001°37'0 0.0
2016-Jul-17 00:33N 47°12' W 001°37'0 0.0
2016-Jul-16 23:33N 47°12' W 001°37'0 0.0
2016-Jul-16 22:33N 47°12' W 001°37'0 0.0
2016-Jul-16 21:33N 47°12' W 001°37'0 0.0
2016-Jul-16 20:33N 47°12' W 001°37'18 2.0
2016-Jul-16 11:24N 47°18' W 002°02'1011.4
2016-Jul-16 10:32N 47°14' W 002°16'9 8.8
2016-Jul-16 09:32N 47°06' W 002°20'1 0.9
2016-Jul-16 08:33N 47°05' W 002°21'0 0.1
2016-Jul-16 07:33N 47°05' W 002°21'0 0.1
2016-Jul-16 06:34N 47°05' W 002°21'19 9.4
2016-Jul-16 04:33N 47°17' W 002°00'1211.5
2016-Jul-16 03:33N 47°12' W 001°45'5 5.1
2016-Jul-16 02:33N 47°12' W 001°38'0 0.0
2016-Jul-16 01:34N 47°12' W 001°38'1 1.4
2016-Jul-16 00:34N 47°12' W 001°40'9 9.1
2016-Jul-15 23:34N 47°16' W 001°52'1110.5
2016-Jul-15 22:34N 47°18' W 002°07'1110.5
2016-Jul-15 21:33N 47°11' W 002°18'5 5.3
2016-Jul-15 20:34N 47°06' W 002°21'1 0.8
2016-Jul-15 19:32N 47°05' W 002°21'0 0.1
2016-Jul-15 18:33N 47°05' W 002°21'0 0.1
2016-Jul-15 17:32N 47°05' W 002°21'0 0.1
2016-Jul-15 16:32N 47°05' W 002°21'7 0.6
2016-Jul-15 05:33N 47°11' W 002°18'1010.1
2016-Jul-15 04:33N 47°18' W 002°07'0 0.0
2016-Jul-15 03:33N 47°18' W 002°07'0 0.0
2016-Jul-15 02:33N 47°18' W 002°07'0 0.0
2016-Jul-15 01:33N 47°18' W 002°07'0 0.0
2016-Jul-15 00:18N 47°18' W 002°07'0 0.0
2016-Jul-14 23:30N 47°18' W 002°07'11 1.4
2016-Jul-14 15:34N 47°15' W 001°51'10 9.2
2016-Jul-14 14:31N 47°12' W 001°38'0 0.0
2016-Jul-14 13:31N 47°12' W 001°38'0 0.0
2016-Jul-14 12:33N 47°12' W 001°38'0 0.0
2016-Jul-14 11:33N 47°12' W 001°38'1 1.3
2016-Jul-14 10:33N 47°12' W 001°40'1010.1
2016-Jul-14 09:33N 47°16' W 001°53'1111.2
2016-Jul-14 08:33N 47°18' W 002°09'1110.9
2016-Jul-14 07:33N 47°09' W 002°19'4 4.3
2016-Jul-14 06:34N 47°05' W 002°21'0 0.1
2016-Jul-14 05:34N 47°05' W 002°21'0 0.1
2016-Jul-14 04:33N 47°05' W 002°21'  

Dump ship's entire track history